Time;durP1;ratioP1;P1;durP2;ratioP2;P2;SDS_P1;SDS_P2;PMS_P1;PMS_P2;Temp;Humidity;BMP_temperature;BMP_pressure;BME280_temperature;BME280_humidity;BME280_pressure;Samples;Min_cycle;Max_cycle;Signal;HPM_P1;HPM_P2
2024/01/06 00:00:26;;;;;;;;;;;;;;;3.75;56.31;99072.06;109191;1256;61750;-63
2024/01/06 00:02:54;;;;;;;;;;;;;;;3.79;56.32;99077.21;109341;1254;59868;-61
2024/01/06 00:05:21;;;;;;;;;;;;;;;3.81;56.03;99086.09;109384;1254;75537;-63
2024/01/06 00:07:49;;;;;;;;;;;;;;;3.82;56.11;99101.94;109382;1253;67347;-62
2024/01/06 00:10:17;;;;;;;;;;;;;;;3.93;56.21;99114.06;109361;1256;72337;-63
2024/01/06 00:12:44;;;;;;;;;;;;;;;4.04;56.14;99123.67;109157;1257;61699;-61
2024/01/06 00:15:12;;;;;;;;;;;;;;;4.03;55.89;99122.74;109091;1257;59875;-60
2024/01/06 00:17:40;;;;;;;;;;;;;;;4.08;56.01;99115.13;109084;1257;73406;-60
2024/01/06 00:20:07;;;;;;;;;;;;;;;4.13;55.96;99104.36;109062;1257;68663;-60
2024/01/06 00:22:35;;;;;;;;;;;;;;;4.07;56.11;99102.52;108955;1257;71474;-61
2024/01/06 00:25:03;;;;;;;;;;;;;;;3.98;56.77;99104.75;109074;1258;60468;-61
2024/01/06 00:27:30;;;;;;;;;;;;;;;4.04;56.44;99107.37;109078;1256;59718;-62
2024/01/06 00:29:58;;;;;;;;;;;;;;;4.08;56.03;99113.02;109097;1256;75515;-61
2024/01/06 00:32:25;;;;;;;;;;;;;;;4.07;55.88;99108.84;109100;1257;67617;-62
2024/01/06 00:34:53;;;;;;;;;;;;;;;4.11;56.21;99101.03;109084;1257;72795;-62
2024/01/06 00:37:21;;;;;;;;;;;;;;;4.15;56.58;99092.53;109063;1258;59858;-64
2024/01/06 00:39:49;;;;;;;;;;;;;;;4.14;56.98;99085.88;109090;1257;59882;-61
2024/01/06 00:42:16;;;;;;;;;;;;;;;3.98;57.25;99080.27;109101;1257;75536;-62
2024/01/06 00:44:45;;;;;;;;;;;;;;;3.93;57.94;99080.38;109417;1252;68567;-61
2024/01/06 00:47:12;;;;;;;;;;;;;;;3.97;57.35;99076.47;109452;1252;72748;-61
2024/01/06 00:49:40;;;;;;;;;;;;;;;4.01;57.19;99080.84;109447;1255;61779;-61
2024/01/06 00:52:08;;;;;;;;;;;;;;;4.01;57.15;99074.18;109479;1252;59933;-63
2024/01/06 00:54:35;;;;;;;;;;;;;;;4.14;57.00;99076.03;109559;1252;75470;-60
2024/01/06 00:57:03;;;;;;;;;;;;;;;4.03;57.25;99063.38;109597;1252;67627;-64
2024/01/06 00:59:30;;;;;;;;;;;;;;;4.22;56.81;99053.79;109580;1251;70443;-61
2024/01/06 01:01:58;;;;;;;;;;;;;;;4.28;56.55;99042.25;109524;1252;61754;-63
2024/01/06 01:04:25;;;;;;;;;;;;;;;4.23;57.10;99039.63;109541;1252;60029;-61
2024/01/06 01:06:53;;;;;;;;;;;;;;;4.28;56.52;99039.69;109603;1252;75513;-61
2024/01/06 01:09:21;;;;;;;;;;;;;;;4.39;56.46;99046.70;109596;1253;68821;-61
2024/01/06 01:11:48;;;;;;;;;;;;;;;4.48;56.19;99053.05;109582;1252;72833;-63
2024/01/06 01:14:18;;;;;;;;;;;;;;;4.38;56.43;99054.02;109546;1251;59988;-63
2024/01/06 01:16:45;;;;;;;;;;;;;;;4.40;56.58;99058.13;109607;1252;59849;-60
2024/01/06 01:19:13;;;;;;;;;;;;;;;4.39;56.08;99069.34;109521;1254;75414;-59
2024/01/06 01:21:41;;;;;;;;;;;;;;;4.47;56.04;99071.61;109485;1252;67249;-59
2024/01/06 01:24:08;;;;;;;;;;;;;;;4.61;56.10;99073.54;109580;1252;72799;-60
2024/01/06 01:26:36;;;;;;;;;;;;;;;4.69;55.88;99073.20;109514;1254;59821;-59
2024/01/06 01:29:03;;;;;;;;;;;;;;;4.72;55.92;99064.91;109535;1252;59740;-60
2024/01/06 01:31:30;;;;;;;;;;;;;;;4.75;55.96;99063.02;109597;1252;75509;-60
2024/01/06 01:33:58;;;;;;;;;;;;;;;4.67;56.18;99059.55;109584;1252;68552;-62
2024/01/06 01:36:26;;;;;;;;;;;;;;;4.73;56.25;99054.35;109577;1253;71498;-60
2024/01/06 01:38:53;;;;;;;;;;;;;;;4.68;56.23;99048.31;109538;1253;61152;-59
2024/01/06 01:41:20;;;;;;;;;;;;;;;4.78;56.35;99050.42;109587;1252;59764;-62
2024/01/06 01:43:48;;;;;;;;;;;;;;;4.79;56.10;99050.48;109570;1252;75513;-59
2024/01/06 01:46:15;;;;;;;;;;;;;;;4.77;55.87;99042.77;109181;1252;68583;-61
2024/01/06 01:48:43;;;;;;;;;;;;;;;4.67;56.27;99038.36;109382;1253;72743;-59
2024/01/06 01:51:10;;;;;;;;;;;;;;;4.78;56.34;99037.00;109523;1252;60920;-60
2024/01/06 01:53:38;;;;;;;;;;;;;;;4.79;56.39;99037.19;109463;1255;59764;-59
2024/01/06 01:56:05;;;;;;;;;;;;;;;4.65;56.81;99039.45;109548;1252;75507;-60
2024/01/06 01:58:33;;;;;;;;;;;;;;;4.69;57.26;99029.73;109276;1255;67277;-60
2024/01/06 02:01:00;;;;;;;;;;;;;;;4.68;57.37;99010.73;109509;1253;72700;-59
2024/01/06 02:03:29;;;;;;;;;;;;;;;4.74;57.18;99002.91;109106;1254;59780;-60
2024/01/06 02:05:56;;;;;;;;;;;;;;;4.67;57.23;99003.50;109434;1253;59868;-59
2024/01/06 02:08:24;;;;;;;;;;;;;;;4.65;57.49;99006.69;109546;1252;75573;-60
2024/01/06 02:10:52;;;;;;;;;;;;;;;4.64;57.64;99011.77;109545;1252;67686;-59
2024/01/06 02:13:20;;;;;;;;;;;;;;;4.45;58.32;99017.54;109531;1253;71485;-59
2024/01/06 02:15:47;;;;;;;;;;;;;;;4.46;58.48;99017.22;109522;1252;60947;-60
2024/01/06 02:18:15;;;;;;;;;;;;;;;4.54;58.34;99020.06;109503;1252;59891;-60
2024/01/06 02:20:43;;;;;;;;;;;;;;;4.50;58.29;99022.95;109567;1252;75529;-60
2024/01/06 02:23:10;;;;;;;;;;;;;;;4.59;58.26;99018.06;109535;1252;67208;-59
2024/01/06 02:25:37;;;;;;;;;;;;;;;4.60;58.24;99009.27;109567;1253;71450;-59
2024/01/06 02:28:05;;;;;;;;;;;;;;;4.55;58.23;99004.52;109547;1253;60915;-60
2024/01/06 02:30:32;;;;;;;;;;;;;;;4.58;58.05;98997.31;109608;1252;59814;-60
2024/01/06 02:33:00;;;;;;;;;;;;;;;4.54;58.20;98993.23;109451;1252;75552;-59
2024/01/06 02:35:28;;;;;;;;;;;;;;;4.52;58.51;99003.00;109521;1253;67358;-60
2024/01/06 02:37:55;;;;;;;;;;;;;;;4.63;58.22;99005.09;109567;1253;72723;-61
2024/01/06 02:40:22;;;;;;;;;;;;;;;4.57;58.53;99001.70;109360;1254;60037;-59
2024/01/06 02:42:50;;;;;;;;;;;;;;;4.50;58.82;98996.89;109527;1251;59842;-60
2024/01/06 02:45:17;;;;;;;;;;;;;;;4.59;58.47;98993.87;109591;1252;74240;-59
2024/01/06 02:47:45;;;;;;;;;;;;;;;4.49;59.03;98987.30;109525;1252;67005;-59
2024/01/06 02:50:12;;;;;;;;;;;;;;;4.58;58.76;98992.65;109459;1253;72704;-60
2024/01/06 02:52:40;;;;;;;;;;;;;;;4.53;58.67;98990.92;109481;1254;60890;-60
2024/01/06 02:55:07;;;;;;;;;;;;;;;4.56;58.65;98988.27;109490;1252;59833;-59
2024/01/06 02:57:35;;;;;;;;;;;;;;;4.61;58.38;98985.11;109107;1252;75497;-60
2024/01/06 03:00:03;;;;;;;;;;;;;;;4.69;58.40;98977.29;109475;1253;67710;-62
2024/01/06 03:02:30;;;;;;;;;;;;;;;4.55;58.73;98973.07;109526;1253;72675;-61
2024/01/06 03:04:58;;;;;;;;;;;;;;;4.52;59.21;98977.28;109223;1253;60908;-61
2024/01/06 03:07:25;;;;;;;;;;;;;;;4.45;59.30;98965.73;109519;1253;59629;-62
2024/01/06 03:09:53;;;;;;;;;;;;;;;4.39;59.63;98960.27;109161;1252;73767;-62
2024/01/06 03:12:20;;;;;;;;;;;;;;;4.43;59.24;98952.19;109603;1251;68808;-61
2024/01/06 03:14:48;;;;;;;;;;;;;;;4.54;59.01;98949.04;109616;1252;72696;-61
2024/01/06 03:17:15;;;;;;;;;;;;;;;4.59;58.80;98952.56;109574;1253;59750;-61
2024/01/06 03:19:43;;;;;;;;;;;;;;;4.57;58.89;98948.33;109631;1252;59700;-60
2024/01/06 03:22:11;;;;;;;;;;;;;;;4.59;58.90;98956.03;109405;1253;75469;-63
2024/01/06 03:24:39;;;;;;;;;;;;;;;4.43;59.00;98946.23;109512;1252;68822;-63
2024/01/06 03:27:08;;;;;;;;;;;;;;;4.35;59.36;98943.08;109536;1252;71445;-61
2024/01/06 03:29:36;;;;;;;;;;;;;;;4.41;59.29;98946.41;109557;1253;60052;-63
2024/01/06 03:32:03;;;;;;;;;;;;;;;4.47;59.30;98948.89;109617;1252;59770;-63
2024/01/06 03:34:31;;;;;;;;;;;;;;;4.60;59.14;98949.99;109629;1253;75535;-61
2024/01/06 03:36:58;;;;;;;;;;;;;;;4.56;59.08;98942.88;109671;1253;68840;-63
2024/01/06 03:39:26;;;;;;;;;;;;;;;4.48;59.51;98942.42;109650;1252;71445;-63
2024/01/06 03:41:53;;;;;;;;;;;;;;;4.55;59.54;98942.44;109629;1252;59812;-63
2024/01/06 03:44:21;;;;;;;;;;;;;;;4.42;60.03;98933.77;109647;1253;59876;-62
2024/01/06 03:46:48;;;;;;;;;;;;;;;4.56;59.80;98938.88;109656;1252;74574;-62
2024/01/06 03:49:18;;;;;;;;;;;;;;;4.65;59.48;98941.77;109471;1253;68825;-61
2024/01/06 03:51:46;;;;;;;;;;;;;;;4.80;59.18;98941.79;109505;1253;72910;-63
2024/01/06 03:54:13;;;;;;;;;;;;;;;4.66;59.31;98935.90;109303;1256;60934;-61
2024/01/06 03:56:40;;;;;;;;;;;;;;;4.62;59.63;98936.00;109384;1252;59887;-63
2024/01/06 03:59:08;;;;;;;;;;;;;;;4.70;59.77;98938.27;109472;1253;74235;-63
2024/01/06 04:01:35;;;;;;;;;;;;;;;4.68;59.95;98938.55;109262;1253;67264;-63
2024/01/06 04:04:03;;;;;;;;;;;;;;;4.69;59.81;98939.99;109505;1253;72701;-61
2024/01/06 04:06:31;;;;;;;;;;;;;;;4.73;59.80;98943.77;109478;1254;60939;-63
2024/01/06 04:08:59;;;;;;;;;;;;;;;4.75;59.86;98928.00;109440;1253;59878;-66
2024/01/06 04:11:27;;;;;;;;;;;;;;;4.70;60.05;98925.18;109397;1253;75547;-62
2024/01/06 04:13:54;;;;;;;;;;;;;;;4.52;60.86;98923.55;109614;1251;68480;-62
2024/01/06 04:16:22;;;;;;;;;;;;;;;4.71;60.31;98917.02;109614;1252;71893;-62
2024/01/06 04:18:50;;;;;;;;;;;;;;;4.81;59.84;98917.10;109582;1252;60900;-59
2024/01/06 04:21:17;;;;;;;;;;;;;;;4.89;59.75;98919.61;109129;1252;59794;-59
2024/01/06 04:23:45;;;;;;;;;;;;;;;4.72;60.27;98907.75;109290;1252;75495;-61
2024/01/06 04:26:13;;;;;;;;;;;;;;;4.81;60.08;98902.25;109633;1252;68588;-62
2024/01/06 04:28:40;;;;;;;;;;;;;;;4.87;59.86;98894.73;109542;1252;72685;-63
2024/01/06 04:31:08;;;;;;;;;;;;;;;4.91;59.82;98897.69;109616;1252;59758;-63
2024/01/06 04:33:40;;;;;;;;;;;;;;;4.78;60.39;98896.98;109670;1254;59753;-63
2024/01/06 04:36:08;;;;;;;;;;;;;;;4.58;60.98;98891.63;109564;1253;74279;-60
2024/01/06 04:38:35;;;;;;;;;;;;;;;4.70;60.85;98883.58;109604;1252;68841;-62
2024/01/06 04:41:03;;;;;;;;;;;;;;;4.85;60.59;98882.09;109610;1253;71442;-59
2024/01/06 04:43:30;;;;;;;;;;;;;;;5.02;59.98;98881.80;109594;1253;59767;-59
2024/01/06 04:45:58;;;;;;;;;;;;;;;5.02;59.62;98881.54;109678;1252;59833;-59
2024/01/06 04:48:25;;;;;;;;;;;;;;;4.94;59.95;98875.20;109526;1252;75543;-60
2024/01/06 04:50:53;;;;;;;;;;;;;;;4.93;60.35;98872.58;109475;1253;68069;-62
2024/01/06 04:53:20;;;;;;;;;;;;;;;4.96;60.18;98874.98;109475;1253;72846;-61
2024/01/06 04:55:48;;;;;;;;;;;;;;;4.85;60.53;98879.95;109488;1253;60899;-62
2024/01/06 04:58:15;;;;;;;;;;;;;;;4.89;60.43;98877.91;109479;1253;59989;-62
2024/01/06 05:00:43;;;;;;;;;;;;;;;4.92;60.55;98870.54;109144;1253;74269;-62
2024/01/06 05:03:10;;;;;;;;;;;;;;;4.78;61.01;98866.14;109471;1253;68807;-59
2024/01/06 05:05:38;;;;;;;;;;;;;;;4.97;60.58;98870.33;109476;1252;72741;-59
2024/01/06 05:08:05;;;;;;;;;;;;;;;4.94;60.83;98864.20;109326;1253;60912;-61
2024/01/06 05:10:33;;;;;;;;;;;;;;;4.93;60.68;98862.21;109358;1255;62067;-62
2024/01/06 05:13:00;;;;;;;;;;;;;;;4.93;60.72;98860.13;109082;1253;74289;-63
2024/01/06 05:15:28;;;;;;;;;;;;;;;4.94;60.66;98859.04;109114;1255;67278;-59
2024/01/06 05:17:55;;;;;;;;;;;;;;;4.95;60.75;98863.17;109288;1254;72678;-60
2024/01/06 05:20:23;;;;;;;;;;;;;;;4.89;61.04;98858.77;109230;1254;59754;-61
2024/01/06 05:22:50;;;;;;;;;;;;;;;4.99;60.69;98854.45;109136;1254;60255;-60
2024/01/06 05:25:19;;;;;;;;;;;;;;;5.05;60.49;98855.33;108871;1254;312429;-59
2024/01/06 05:27:46;;;;;;;;;;;;;;;5.09;60.61;98858.80;109267;1254;67168;-59
2024/01/06 05:30:14;;;;;;;;;;;;;;;5.24;60.20;98850.92;109298;1253;70920;-59
2024/01/06 05:32:41;;;;;;;;;;;;;;;5.02;60.92;98848.84;109240;1256;59794;-60
2024/01/06 05:35:09;;;;;;;;;;;;;;;5.09;60.73;98842.73;109274;1254;59705;-59
2024/01/06 05:37:36;;;;;;;;;;;;;;;5.19;60.68;98840.59;109288;1258;74256;-60
2024/01/06 05:40:05;;;;;;;;;;;;;;;5.23;60.33;98839.09;109325;1253;68725;-59
2024/01/06 05:42:32;;;;;;;;;;;;;;;5.12;60.59;98833.17;109104;1254;72719;-62
2024/01/06 05:45:00;;;;;;;;;;;;;;;5.17;60.37;98838.95;109102;1255;60995;-62
2024/01/06 05:47:28;;;;;;;;;;;;;;;5.17;60.42;98851.27;109235;1253;59854;-60
2024/01/06 05:49:55;;;;;;;;;;;;;;;5.36;59.82;98860.15;109514;1257;74213;-61
2024/01/06 05:52:23;;;;;;;;;;;;;;;5.47;59.49;98864.63;109543;1253;68522;-62
2024/01/06 05:54:50;;;;;;;;;;;;;;;5.53;59.20;98872.02;109551;1253;71411;-61
2024/01/06 05:57:18;;;;;;;;;;;;;;;5.49;59.66;98879.13;109321;1253;60952;-59
2024/01/06 05:59:46;;;;;;;;;;;;;;;5.53;59.26;98880.60;109492;1253;60183;-63
2024/01/06 06:02:13;;;;;;;;;;;;;;;5.65;58.88;98886.94;108756;1253;1002329;-60
2024/01/06 06:04:41;;;;;;;;;;;;;;;5.57;58.92;98886.10;109536;1252;67100;-59
2024/01/06 06:07:08;;;;;;;;;;;;;;;5.55;59.36;98887.14;109327;1253;72727;-60
2024/01/06 06:09:37;;;;;;;;;;;;;;;5.46;59.71;98885.73;109489;1253;59935;-61
2024/01/06 06:12:05;;;;;;;;;;;;;;;5.36;59.99;98875.38;109502;1253;59757;-60
2024/01/06 06:14:32;;;;;;;;;;;;;;;5.44;59.55;98875.91;109540;1253;74212;-60
2024/01/06 06:17:00;;;;;;;;;;;;;;;5.51;59.35;98876.88;109523;1253;68821;-60
2024/01/06 06:19:27;;;;;;;;;;;;;;;5.55;59.39;98882.59;109524;1253;72752;-60
2024/01/06 06:21:55;;;;;;;;;;;;;;;5.55;59.11;98884.69;109539;1254;60919;-60
2024/01/06 06:24:22;;;;;;;;;;;;;;;5.66;58.96;98888.73;109563;1253;59700;-59
2024/01/06 06:26:50;;;;;;;;;;;;;;;5.83;58.38;98886.46;109313;1253;75524;-60
2024/01/06 06:29:17;;;;;;;;;;;;;;;5.74;59.01;98873.84;109301;1256;68568;-59
2024/01/06 06:31:46;;;;;;;;;;;;;;;5.61;59.25;98863.75;109215;1255;72681;-59
2024/01/06 06:34:14;;;;;;;;;;;;;;;5.58;59.58;98860.25;109258;1257;59760;-59
2024/01/06 06:36:41;;;;;;;;;;;;;;;5.54;59.98;98858.14;109276;1255;59849;-61
2024/01/06 06:39:09;;;;;;;;;;;;;;;5.59;60.08;98864.52;109245;1257;75479;-58
2024/01/06 06:41:37;;;;;;;;;;;;;;;5.58;60.16;98874.19;109319;1254;67675;-58
2024/01/06 06:44:04;;;;;;;;;;;;;;;5.54;60.52;98878.91;109282;1254;72747;-60
2024/01/06 06:46:31;;;;;;;;;;;;;;;5.71;60.29;98879.23;109264;1255;60933;-61
2024/01/06 06:48:59;;;;;;;;;;;;;;;5.68;60.36;98878.31;109217;1257;59812;-58
2024/01/06 06:51:27;;;;;;;;;;;;;;;5.73;60.16;98873.73;109206;1256;75490;-59
2024/01/06 06:53:55;;;;;;;;;;;;;;;5.79;59.88;98869.99;109220;1255;67671;-59
2024/01/06 06:56:22;;;;;;;;;;;;;;;5.80;59.87;98869.97;109159;1257;72736;-59
2024/01/06 06:58:50;;;;;;;;;;;;;;;5.73;60.07;98865.04;109190;1256;60929;-59
2024/01/06 07:01:17;;;;;;;;;;;;;;;5.76;59.75;98869.32;109455;1253;59792;-59
2024/01/06 07:03:44;;;;;;;;;;;;;;;5.82;59.76;98870.64;109581;1252;75692;-59
2024/01/06 07:06:12;;;;;;;;;;;;;;;5.81;59.46;98863.64;109573;1253;67280;-59
2024/01/06 07:08:41;;;;;;;;;;;;;;;5.64;60.34;98864.88;109603;1253;72695;-59
2024/01/06 07:11:11;;;;;;;;;;;;;;;5.83;59.67;98862.09;109488;1253;59784;-59
2024/01/06 07:13:39;;;;;;;;;;;;;;;5.83;59.39;98857.98;109515;1253;59678;-59
2024/01/06 07:16:07;;;;;;;;;;;;;;;5.83;59.71;98859.64;109593;1253;74217;-59
2024/01/06 07:18:45;;;;;;;;;;;;;;;5.96;59.07;98857.91;109508;1253;68544;-59
2024/01/06 07:21:13;;;;;;;;;;;;;;;5.77;59.90;98857.30;109316;1252;72808;-59
2024/01/06 07:23:42;;;;;;;;;;;;;;;5.86;59.84;98864.11;109553;1253;60953;-59
2024/01/06 07:26:09;;;;;;;;;;;;;;;5.92;59.80;98874.80;109518;1252;59935;-60
2024/01/06 07:28:37;;;;;;;;;;;;;;;5.95;59.65;98878.77;109523;1253;75470;-60
2024/01/06 07:31:04;;;;;;;;;;;;;;;6.12;59.55;98872.73;109264;1253;67576;-59
2024/01/06 07:33:33;;;;;;;;;;;;;;;6.11;59.45;98867.82;109514;1252;71447;-59
2024/01/06 07:36:00;;;;;;;;;;;;;;;6.08;59.37;98868.83;109607;1254;59765;-60
2024/01/06 07:38:30;;;;;;;;;;;;;;;6.21;59.22;98872.02;109584;1252;59857;-59
2024/01/06 07:40:58;;;;;;;;;;;;;;;6.27;59.08;98873.19;109544;1253;75394;-59
2024/01/06 07:43:25;;;;;;;;;;;;;;;6.31;59.13;98878.04;109601;1252;68546;-59
2024/01/06 07:45:53;;;;;;;;;;;;;;;6.28;58.94;98876.19;109577;1253;71454;-61
2024/01/06 07:48:21;;;;;;;;;;;;;;;6.22;59.43;98873.63;109470;1252;59787;-60
2024/01/06 07:50:49;;;;;;;;;;;;;;;6.24;59.71;98864.40;109536;1254;59880;-60
2024/01/06 07:53:17;;;;;;;;;;;;;;;6.11;59.96;98861.59;109157;1253;74276;-63
2024/01/06 07:55:44;;;;;;;;;;;;;;;6.16;60.09;98868.52;109495;1253;68516;-60
2024/01/06 07:58:12;;;;;;;;;;;;;;;6.19;59.89;98861.23;109492;1253;71430;-59
2024/01/06 08:00:39;;;;;;;;;;;;;;;6.11;60.50;98859.13;109463;1254;60126;-60
2024/01/06 08:03:07;;;;;;;;;;;;;;;6.22;60.16;98860.84;109513;1253;59877;-60
2024/01/06 08:05:34;;;;;;;;;;;;;;;6.30;60.06;98859.65;109497;1254;75525;-59
2024/01/06 08:08:04;;;;;;;;;;;;;;;6.22;60.48;98854.23;109490;1253;68902;-60
2024/01/06 08:10:31;;;;;;;;;;;;;;;6.20;60.88;98854.64;109519;1254;72725;-60
2024/01/06 08:12:59;;;;;;;;;;;;;;;6.19;60.57;98859.64;109548;1253;60999;-60
2024/01/06 08:15:26;;;;;;;;;;;;;;;6.19;60.87;98861.33;109393;1253;59852;-61
2024/01/06 08:17:54;;;;;;;;;;;;;;;6.17;60.57;98861.23;109341;1254;74215;-61
2024/01/06 08:20:21;;;;;;;;;;;;;;;6.19;61.14;98857.77;109606;1254;68841;-60
2024/01/06 08:22:49;;;;;;;;;;;;;;;6.19;61.34;98848.65;109581;1254;71465;-63
2024/01/06 08:25:17;;;;;;;;;;;;;;;6.17;60.94;98845.80;109517;1254;59738;-61
2024/01/06 08:27:44;;;;;;;;;;;;;;;6.42;60.05;98843.09;109233;1256;59751;-62
2024/01/06 08:30:12;;;;;;;;;;;;;;;6.24;60.56;98841.36;109592;1252;74479;-61
2024/01/06 08:32:40;;;;;;;;;;;;;;;6.07;61.05;98834.88;109649;1253;68983;-61
2024/01/06 08:35:08;;;;;;;;;;;;;;;6.09;60.97;98826.79;109550;1255;72706;-62
2024/01/06 08:37:35;;;;;;;;;;;;;;;6.25;60.70;98824.11;109573;1254;60949;-61
2024/01/06 08:40:04;;;;;;;;;;;;;;;6.34;60.16;98822.70;109589;1252;60019;-61
2024/01/06 08:42:32;;;;;;;;;;;;;;;6.29;60.23;98824.98;109598;1254;75499;-61
2024/01/06 08:44:59;;;;;;;;;;;;;;;6.28;60.50;98835.57;109600;1252;68805;-61
2024/01/06 08:47:27;;;;;;;;;;;;;;;6.40;59.98;98842.58;109582;1253;71453;-62
2024/01/06 08:49:54;;;;;;;;;;;;;;;6.54;59.83;98835.11;109338;1254;59786;-61
2024/01/06 08:52:22;;;;;;;;;;;;;;;6.56;59.61;98835.36;109310;1253;59849;-61
2024/01/06 08:54:49;;;;;;;;;;;;;;;6.70;59.60;98825.46;109465;1254;74230;-61
2024/01/06 08:57:17;;;;;;;;;;;;;;;6.81;59.12;98821.44;109371;1253;69096;-63
2024/01/06 08:59:45;;;;;;;;;;;;;;;6.74;59.07;98819.16;109425;1254;72947;-63
2024/01/06 09:02:13;;;;;;;;;;;;;;;6.89;59.53;98818.77;109114;1252;59823;-65
2024/01/06 09:04:40;;;;;;;;;;;;;;;6.81;60.05;98811.84;109434;1254;59914;-62
2024/01/06 09:07:08;;;;;;;;;;;;;;;6.91;59.79;98824.45;109385;1252;75522;-63
2024/01/06 09:09:35;;;;;;;;;;;;;;;6.80;60.06;98821.11;109481;1254;68508;-60
2024/01/06 09:12:03;;;;;;;;;;;;;;;6.98;59.16;98823.39;109621;1254;72799;-60
2024/01/06 09:14:30;;;;;;;;;;;;;;;6.88;59.60;98820.00;109506;1253;60905;-61
2024/01/06 09:16:58;;;;;;;;;;;;;;;6.95;59.66;98821.58;109399;1254;59982;-61
2024/01/06 09:19:28;;;;;;;;;;;;;;;6.99;59.03;98823.13;109362;1254;75560;-60
2024/01/06 09:21:55;;;;;;;;;;;;;;;6.90;59.22;98818.90;109218;1260;67054;-60
2024/01/06 09:24:23;;;;;;;;;;;;;;;6.86;59.89;98813.77;109212;1257;71547;-60
2024/01/06 09:26:51;;;;;;;;;;;;;;;7.13;59.20;98816.71;109078;1257;60956;-64
2024/01/06 09:29:18;;;;;;;;;;;;;;;7.20;59.08;98813.65;109104;1262;59960;-61
2024/01/06 09:31:46;;;;;;;;;;;;;;;7.27;58.86;98815.65;109151;1257;75540;-60
2024/01/06 09:34:13;;;;;;;;;;;;;;;7.11;59.44;98811.89;109119;1257;68540;-62
2024/01/06 09:36:41;;;;;;;;;;;;;;;7.19;59.14;98811.77;109099;1257;72756;-63
2024/01/06 09:39:09;;;;;;;;;;;;;;;7.26;59.58;98808.27;109097;1257;59963;-59
2024/01/06 09:41:36;;;;;;;;;;;;;;;7.19;59.22;98806.34;109088;1256;60128;-61
2024/01/06 09:44:04;;;;;;;;;;;;;;;7.13;59.19;98806.89;109148;1261;75538;-60
2024/01/06 09:46:31;;;;;;;;;;;;;;;7.01;60.22;98805.20;109187;1256;66281;-60
2024/01/06 09:48:59;;;;;;;;;;;;;;;7.17;59.44;98807.20;109147;1257;71443;-61
2024/01/06 09:51:28;;;;;;;;;;;;;;;7.08;59.93;98803.79;109135;1257;59971;-59
2024/01/06 09:53:57;;;;;;;;;;;;;;;7.10;59.73;98794.52;109327;1254;61055;-60
2024/01/06 09:56:25;;;;;;;;;;;;;;;7.16;59.97;98785.64;109377;1257;75511;-60
2024/01/06 09:58:52;;;;;;;;;;;;;;;7.00;59.70;98788.08;109455;1254;68519;-59
2024/01/06 10:01:20;;;;;;;;;;;;;;;6.95;60.12;98779.27;109362;1253;71468;-64
2024/01/06 10:03:48;;;;;;;;;;;;;;;6.90;60.61;98777.70;109424;1253;60919;-63
2024/01/06 10:06:15;;;;;;;;;;;;;;;6.90;60.60;98773.80;109213;1255;59881;-63
2024/01/06 10:08:49;;;;;;;;;;;;;;;6.89;60.62;98776.02;109134;1257;74275;-64
2024/01/06 10:11:17;;;;;;;;;;;;;;;6.77;60.99;98779.52;109119;1256;68668;-61
2024/01/06 10:13:45;;;;;;;;;;;;;;;7.09;60.33;98776.53;109128;1256;72678;-60
2024/01/06 10:16:13;;;;;;;;;;;;;;;7.09;60.69;98779.32;109097;1256;60939;-59
2024/01/06 10:18:40;;;;;;;;;;;;;;;6.72;61.88;98778.81;109129;1256;59865;-60
2024/01/06 10:21:08;;;;;;;;;;;;;;;6.91;61.52;98768.33;109055;1257;75577;-60
2024/01/06 10:23:36;;;;;;;;;;;;;;;6.92;61.11;98774.05;109130;1256;67270;-60
2024/01/06 10:26:04;;;;;;;;;;;;;;;6.86;61.86;98769.71;109122;1256;71693;-60
2024/01/06 10:28:32;;;;;;;;;;;;;;;7.02;61.15;98773.73;109103;1257;59702;-62
2024/01/06 10:31:01;;;;;;;;;;;;;;;6.85;61.78;98766.66;109105;1256;59718;-61
2024/01/06 10:33:29;;;;;;;;;;;;;;;6.99;61.40;98767.57;109135;1256;75551;-61
2024/01/06 10:35:56;;;;;;;;;;;;;;;6.97;61.58;98765.83;109077;1257;67228;-61
2024/01/06 10:38:25;;;;;;;;;;;;;;;7.12;61.45;98775.88;109153;1255;72783;-60
2024/01/06 10:40:57;;;;;;;;;;;;;;;6.97;61.59;98776.17;109112;1257;60986;-60
2024/01/06 10:43:28;;;;;;;;;;;;;;;7.09;62.10;98780.12;109190;1252;59783;-61
2024/01/06 10:45:57;;;;;;;;;;;;;;;7.29;61.42;98781.52;109603;1254;73448;-61
2024/01/06 10:48:26;;;;;;;;;;;;;;;7.29;60.97;98784.17;109537;1253;67541;-61
2024/01/06 10:50:54;;;;;;;;;;;;;;;7.31;61.13;98781.46;109165;1253;72061;-62
2024/01/06 10:53:22;;;;;;;;;;;;;;;7.22;61.77;98777.91;109481;1253;60958;-61
2024/01/06 10:55:51;;;;;;;;;;;;;;;7.09;61.85;98776.64;109442;1252;59724;-61
2024/01/06 10:58:22;;;;;;;;;;;;;;;7.19;62.11;98776.16;109409;1254;74225;-61
2024/01/06 11:00:50;;;;;;;;;;;;;;;7.33;61.61;98769.58;109449;1253;68547;-61
2024/01/06 11:03:18;;;;;;;;;;;;;;;7.38;61.40;98759.34;109370;1253;70677;-63
2024/01/06 11:05:45;;;;;;;;;;;;;;;7.37;61.70;98763.71;109418;1254;60937;-61
2024/01/06 11:08:13;;;;;;;;;;;;;;;7.34;61.91;98774.25;109460;1254;59901;-63
2024/01/06 11:10:40;;;;;;;;;;;;;;;7.39;61.96;98775.26;109626;1253;74239;-61
2024/01/06 11:13:11;;;;;;;;;;;;;;;7.44;61.67;98777.08;109621;1253;67336;-62
2024/01/06 11:15:43;;;;;;;;;;;;;;;7.51;61.67;98782.10;109594;1253;71431;-61
2024/01/06 11:18:41;;;;;;;;;;;;;;;7.51;61.88;98788.23;109582;1253;60911;-60
2024/01/06 11:21:17;;;;;;;;;;;;;;;7.50;61.77;98790.63;109026;1257;59705;-62
2024/01/06 11:23:45;;;;;;;;;;;;;;;7.60;62.28;98787.48;109138;1257;74214;-61
2024/01/06 11:26:14;;;;;;;;;;;;;;;7.66;61.95;98788.71;109129;1257;68565;-60
2024/01/06 11:28:45;;;;;;;;;;;;;;;7.62;61.72;98786.95;108986;1257;71545;-61
2024/01/06 11:31:13;;;;;;;;;;;;;;;7.61;61.97;98789.15;109106;1258;59777;-63
2024/01/06 11:33:43;;;;;;;;;;;;;;;7.62;61.82;98784.98;109130;1257;59871;-61
2024/01/06 11:36:12;;;;;;;;;;;;;;;7.67;61.86;98772.70;109130;1256;75575;-60
2024/01/06 11:38:39;;;;;;;;;;;;;;;7.72;62.38;98771.55;109112;1257;67390;-60
2024/01/06 11:41:07;;;;;;;;;;;;;;;7.72;62.00;98762.00;109147;1257;73209;-61
2024/01/06 11:43:39;;;;;;;;;;;;;;;7.74;61.99;98762.13;109134;1257;59942;-60
2024/01/06 11:46:07;;;;;;;;;;;;;;;7.64;62.50;98758.45;109157;1257;59894;-60
2024/01/06 11:48:35;;;;;;;;;;;;;;;7.68;62.79;98759.45;109136;1257;75399;-61
2024/01/06 11:51:03;;;;;;;;;;;;;;;7.80;62.78;98761.80;109132;1257;68795;-62
2024/01/06 11:53:30;;;;;;;;;;;;;;;7.78;63.07;98763.33;109160;1257;71438;-61
2024/01/06 11:56:00;;;;;;;;;;;;;;;7.85;63.24;98768.77;109099;1257;60830;-60
2024/01/06 11:58:28;;;;;;;;;;;;;;;7.83;62.66;98768.23;109351;1253;59682;-61
2024/01/06 12:00:57;;;;;;;;;;;;;;;7.87;62.39;98765.33;109472;1253;75522;-62
2024/01/06 12:03:26;;;;;;;;;;;;;;;7.97;62.68;98767.27;109467;1254;68027;-61
2024/01/06 12:06:01;;;;;;;;;;;;;;;8.00;62.96;98775.15;109451;1253;72736;-60
2024/01/06 12:08:29;;;;;;;;;;;;;;;8.00;62.89;98784.24;109459;1253;59783;-62
2024/01/06 12:11:03;;;;;;;;;;;;;;;7.99;62.84;98787.44;109402;1253;59762;-62
2024/01/06 12:13:31;;;;;;;;;;;;;;;7.96;62.87;98792.44;109474;1253;75553;-60
2024/01/06 12:15:58;;;;;;;;;;;;;;;7.93;63.11;98795.84;109428;1253;68719;-60
2024/01/06 12:18:25;;;;;;;;;;;;;;;7.94;63.25;98797.98;109415;1254;71470;-60
2024/01/06 12:20:53;;;;;;;;;;;;;;;7.96;63.28;98792.77;109364;1253;60922;-65
2024/01/06 12:23:27;;;;;;;;;;;;;;;8.00;63.52;98787.44;109394;1253;59926;-60
2024/01/06 12:25:55;;;;;;;;;;;;;;;8.07;63.62;98785.36;109467;1253;75480;-60
2024/01/06 12:28:23;;;;;;;;;;;;;;;8.02;62.77;98777.90;109202;1253;67667;-59
2024/01/06 12:30:50;;;;;;;;;;;;;;;7.95;62.72;98776.83;109460;1253;72742;-60
2024/01/06 12:33:18;;;;;;;;;;;;;;;7.97;63.28;98781.42;109182;1256;59714;-60
2024/01/06 12:35:45;;;;;;;;;;;;;;;8.02;63.44;98780.09;109437;1253;59787;-61
2024/01/06 12:38:13;;;;;;;;;;;;;;;8.11;63.77;98776.36;109469;1253;74284;-61
2024/01/06 12:40:40;;;;;;;;;;;;;;;8.18;63.22;98773.35;109494;1251;68827;-61
2024/01/06 12:43:08;;;;;;;;;;;;;;;8.00;62.80;98771.94;109529;1253;72827;-61
2024/01/06 12:45:36;;;;;;;;;;;;;;;7.91;63.57;98775.04;109495;1256;61386;-61
2024/01/06 12:48:03;;;;;;;;;;;;;;;7.97;63.86;98772.95;109575;1252;59718;-60